createdAt,value
2023-01-26T00:00:48.442Z,102136.06
2023-01-26T00:06:03.751Z,102133.47
2023-01-26T00:11:18.454Z,102125.59
2023-01-26T00:16:34.045Z,102115.00
2023-01-26T00:21:49.754Z,102119.78
2023-01-26T00:27:04.791Z,102114.72
2023-01-26T00:32:20.051Z,102108.69
2023-01-26T00:37:36.020Z,102098.38
2023-01-26T00:42:51.741Z,102104.97
2023-01-26T00:48:06.741Z,102099.41
2023-01-26T00:53:21.743Z,102100.63
2023-01-26T00:58:36.730Z,102104.66
2023-01-26T01:03:53.968Z,102106.38
2023-01-26T01:09:09.809Z,102102.84
2023-01-26T01:14:24.736Z,102105.31
2023-01-26T01:19:40.707Z,102093.91
2023-01-26T01:24:55.745Z,102097.75
2023-01-26T01:30:11.096Z,102100.25
2023-01-26T01:35:26.708Z,102098.22
2023-01-26T01:40:41.759Z,102080.53
2023-01-26T01:45:56.794Z,102080.53
2023-01-26T01:51:11.766Z,102074.50
2023-01-26T01:56:26.758Z,102063.72
2023-01-26T02:01:41.742Z,102057.28
2023-01-26T02:06:56.745Z,102052.31
2023-01-26T02:12:11.772Z,102064.94
2023-01-26T02:17:26.705Z,102056.63
2023-01-26T02:22:42.049Z,102055.09
2023-01-26T02:27:59.511Z,102060.38
2023-01-26T02:33:15.791Z,102068.69
2023-01-26T02:38:30.687Z,102060.66
2023-01-26T02:43:45.705Z,102049.56
2023-01-26T02:49:00.517Z,102057.41
2023-01-26T02:54:15.725Z,102053.09
2023-01-26T02:59:30.703Z,102058.94
2023-01-26T03:04:46.092Z,102054.91
2023-01-26T03:10:01.691Z,102067.56
2023-01-26T03:15:16.475Z,102060.00
2023-01-26T03:20:31.754Z,102063.56
2023-01-26T03:25:47.023Z,102065.81
2023-01-26T03:31:03.705Z,102068.13
2023-01-26T03:36:19.058Z,102066.88
2023-01-26T03:41:34.741Z,102060.56
2023-01-26T03:46:49.739Z,102048.25
2023-01-26T03:52:04.488Z,102047.03
2023-01-26T03:57:20.130Z,102057.16
2023-01-26T04:02:35.748Z,102050.09
2023-01-26T04:07:53.001Z,102044.25
2023-01-26T04:13:09.013Z,102051.31
2023-01-26T04:18:30.985Z,102058.41
2023-01-26T04:23:46.769Z,102049.59
2023-01-26T04:29:02.711Z,102047.44
2023-01-26T04:34:18.070Z,102058.63
2023-01-26T04:39:33.489Z,102049.63
2023-01-26T04:44:48.750Z,102048.13
2023-01-26T04:50:04.698Z,102052.59
2023-01-26T04:55:19.816Z,102044.28
2023-01-26T05:00:35.176Z,102035.66
2023-01-26T05:05:51.782Z,102048.78
2023-01-26T05:11:06.821Z,102040.91
2023-01-26T05:16:28.128Z,102030.28
2023-01-26T05:22:02.778Z,102032.00
2023-01-26T05:27:19.999Z,102028.47
2023-01-26T05:32:40.737Z,102032.97
2023-01-26T05:37:56.744Z,102023.88
2023-01-26T05:43:13.510Z,102025.13
2023-01-26T05:48:57.750Z,102027.91
2023-01-26T05:54:13.048Z,102036.97
2023-01-26T05:59:28.821Z,102038.72
2023-01-26T06:04:44.908Z,102035.94
2023-01-26T06:10:00.761Z,102037.16
2023-01-26T06:15:34.072Z,102043.94
2023-01-26T06:20:50.753Z,102045.94
2023-01-26T06:26:06.034Z,102047.94
2023-01-26T06:31:21.907Z,102049.19
2023-01-26T06:36:38.748Z,102055.22
2023-01-26T06:42:00.801Z,102058.78
2023-01-26T06:47:15.522Z,102062.00
2023-01-26T06:52:31.724Z,102061.25
2023-01-26T06:57:54.071Z,102080.66
2023-01-26T07:03:16.021Z,102080.34
2023-01-26T07:08:31.762Z,102065.72
2023-01-26T07:13:46.519Z,102079.09
2023-01-26T07:19:01.617Z,102079.59
2023-01-26T07:24:16.808Z,102081.59
2023-01-26T07:29:31.748Z,102076.81
2023-01-26T07:34:47.061Z,102083.59
2023-01-26T07:40:02.480Z,102088.38
2023-01-26T07:45:17.743Z,102094.69
2023-01-26T07:50:32.821Z,102100.25
2023-01-26T07:55:47.785Z,102105.78
2023-01-26T08:01:02.749Z,102103.78
2023-01-26T08:06:17.820Z,102113.34
2023-01-26T08:11:33.759Z,102109.31
2023-01-26T08:16:48.820Z,102103.22
2023-01-26T08:22:03.802Z,102114.09
2023-01-26T08:27:18.783Z,102115.13
2023-01-26T08:32:33.767Z,102111.16
2023-01-26T08:37:48.774Z,102113.13
2023-01-26T08:43:03.758Z,102116.25
2023-01-26T08:48:19.058Z,102117.00
2023-01-26T08:53:34.745Z,102124.06
2023-01-26T08:58:50.082Z,102120.81
2023-01-26T09:04:05.762Z,102131.44
2023-01-26T09:09:21.091Z,102134.53
2023-01-26T09:14:37.072Z,102133.75
2023-01-26T09:19:52.754Z,102136.53
2023-01-26T09:25:07.726Z,102134.06
2023-01-26T09:30:22.751Z,102133.59
2023-01-26T09:35:37.730Z,102138.66
2023-01-26T09:40:52.779Z,102141.25
2023-01-26T09:46:07.592Z,102139.25
2023-01-26T09:51:22.708Z,102136.47
2023-01-26T09:56:38.098Z,102149.88
2023-01-26T10:01:53.787Z,102146.63
2023-01-26T10:07:08.735Z,102145.88
2023-01-26T10:12:26.753Z,102152.19
2023-01-26T10:17:41.733Z,102161.28
2023-01-26T10:22:56.759Z,102152.94
2023-01-26T10:28:11.772Z,102154.19
2023-01-26T10:33:26.781Z,102146.34
2023-01-26T10:38:41.791Z,102147.41
2023-01-26T10:43:56.841Z,102144.03
2023-01-26T10:49:11.955Z,102142.53
2023-01-26T10:54:27.886Z,102134.19
2023-01-26T10:59:42.769Z,102145.72
2023-01-26T11:04:58.212Z,102132.31
2023-01-26T11:10:13.803Z,102151.16
2023-01-26T11:15:28.760Z,102145.31
2023-01-26T11:20:43.926Z,102140.72
2023-01-26T11:25:59.897Z,102140.44
2023-01-26T11:31:15.267Z,102137.19
2023-01-26T11:36:30.807Z,102138.59
2023-01-26T11:41:45.807Z,102142.31
2023-01-26T11:47:00.782Z,102133.22
2023-01-26T11:52:15.817Z,102134.47
2023-01-26T11:57:30.803Z,102125.06
2023-01-26T12:02:45.914Z,102129.56
2023-01-26T12:08:01.863Z,102131.56
2023-01-26T12:13:17.100Z,102110.31
2023-01-26T12:18:48.880Z,102103.22
2023-01-26T12:24:12.846Z,102087.84
2023-01-26T12:29:35.096Z,102096.63
2023-01-26T12:34:50.905Z,102088.91
2023-01-26T12:40:06.806Z,102083.13
2023-01-26T12:45:21.741Z,102077.41
2023-01-26T12:50:37.069Z,102069.78
2023-01-26T12:55:52.609Z,102062.63
2023-01-26T13:01:07.881Z,102052.41
2023-01-26T13:06:22.768Z,102063.34
2023-01-26T13:11:37.807Z,102051.94
2023-01-26T13:16:52.802Z,102044.47
2023-01-26T13:22:07.788Z,102040.03
2023-01-26T13:27:22.814Z,102047.94
2023-01-26T13:32:38.146Z,102046.59
2023-01-26T13:37:54.260Z,102038.94
2023-01-26T13:43:25.294Z,102054.13
2023-01-26T13:48:41.789Z,102043.63
2023-01-26T13:53:56.834Z,102043.03
2023-01-26T13:59:12.098Z,102046.50
2023-01-26T14:04:27.504Z,102048.19
2023-01-26T14:10:20.919Z,102058.25
2023-01-26T14:15:36.733Z,102059.47
2023-01-26T14:20:51.777Z,102050.84
2023-01-26T14:26:06.816Z,102056.41
2023-01-26T14:31:21.808Z,102041.94
2023-01-26T14:36:36.819Z,102059.63
2023-01-26T14:41:51.821Z,102061.19
2023-01-26T14:47:06.829Z,102058.88
2023-01-26T14:52:22.126Z,102061.84
2023-01-26T14:57:37.715Z,102069.19
2023-01-26T15:02:52.820Z,102065.66
2023-01-26T15:08:07.754Z,102075.19
2023-01-26T15:13:23.127Z,102070.94
2023-01-26T15:18:38.808Z,102061.06
2023-01-26T15:23:53.818Z,102066.13
2023-01-26T15:29:08.771Z,102063.84
2023-01-26T15:34:23.787Z,102065.38
2023-01-26T15:39:38.558Z,102060.56
2023-01-26T15:44:53.774Z,102065.38
2023-01-26T15:50:13.515Z,102069.38
2023-01-26T15:55:37.792Z,102072.16
2023-01-26T16:00:52.672Z,102078.75
2023-01-26T16:06:07.765Z,102080.28
2023-01-26T16:11:22.589Z,102083.53
2023-01-26T16:16:37.554Z,102092.63
2023-01-26T16:21:52.834Z,102087.56
2023-01-26T16:27:07.800Z,102091.25
2023-01-26T16:32:22.813Z,102095.25
2023-01-26T16:37:37.791Z,102102.06
2023-01-26T16:42:52.780Z,102116.69
2023-01-26T16:48:08.824Z,102104.22
2023-01-26T16:53:23.821Z,102106.69
2023-01-26T16:58:38.534Z,102110.06
2023-01-26T17:03:53.792Z,102110.06
2023-01-26T17:09:08.837Z,102119.63
2023-01-26T17:14:23.942Z,102116.09
2023-01-26T17:19:38.798Z,102105.44
2023-01-26T17:24:53.849Z,102105.91
2023-01-26T17:30:08.818Z,102099.91
2023-01-26T17:35:23.767Z,102102.25
2023-01-26T17:40:38.753Z,102097.44
2023-01-26T17:45:53.974Z,102096.69
2023-01-26T17:51:08.843Z,102099.91
2023-01-26T17:56:23.584Z,102104.38
2023-01-26T18:01:38.856Z,102097.31
2023-01-26T18:06:54.046Z,102101.34
2023-01-26T18:12:09.554Z,102102.88
2023-01-26T18:17:24.842Z,102094.56
2023-01-26T18:22:39.790Z,102096.84
2023-01-26T18:27:54.867Z,102086.25
2023-01-26T18:33:09.795Z,102079.44
2023-01-26T18:38:25.763Z,102096.84
2023-01-26T18:43:41.100Z,102086.25
2023-01-26T18:48:57.183Z,102089.78
2023-01-26T18:54:13.068Z,102090.25
2023-01-26T18:59:28.788Z,102087.91
2023-01-26T19:04:44.083Z,102090.69
2023-01-26T19:09:59.796Z,102097.47
2023-01-26T19:15:14.841Z,102095.66
2023-01-26T19:20:29.852Z,102098.16
2023-01-26T19:25:44.840Z,102097.38
2023-01-26T19:30:59.629Z,102090.72
2023-01-26T19:36:15.164Z,102094.47
2023-01-26T19:41:30.783Z,102102.44
2023-01-26T19:46:45.805Z,102095.38
2023-01-26T19:52:00.823Z,102105.41
2023-01-26T19:57:17.114Z,102112.94
2023-01-26T20:02:33.418Z,102105.88
2023-01-26T20:07:48.813Z,102105.13
2023-01-26T20:13:03.859Z,102109.56
2023-01-26T20:18:18.924Z,102110.91
2023-01-26T20:23:33.858Z,102116.53
2023-01-26T20:28:48.844Z,102122.84
2023-01-26T20:34:03.796Z,102118.34
2023-01-26T20:39:18.816Z,102123.53
2023-01-26T20:44:33.826Z,102121.38
2023-01-26T20:49:48.808Z,102112.38
2023-01-26T20:55:04.171Z,102122.41
2023-01-26T21:00:19.856Z,102121.47
2023-01-26T21:05:35.125Z,102124.38
2023-01-26T21:10:50.848Z,102126.97
2023-01-26T21:16:05.845Z,102125.53
2023-01-26T21:21:20.840Z,102120.59
2023-01-26T21:26:35.785Z,102116.41
2023-01-26T21:31:50.584Z,102116.72
2023-01-26T21:37:05.827Z,102115.44
2023-01-26T21:42:20.922Z,102117.59
2023-01-26T21:47:35.771Z,102108.19
2023-01-26T21:52:50.820Z,102117.38
2023-01-26T21:58:05.844Z,102103.84
2023-01-26T22:03:20.867Z,102106.28
2023-01-26T22:08:36.139Z,102106.28
2023-01-26T22:13:51.810Z,102109.81
2023-01-26T22:19:06.816Z,102105.53
2023-01-26T22:24:21.945Z,102102.00
2023-01-26T22:29:36.820Z,102106.78
2023-01-26T22:34:51.808Z,102115.88
2023-01-26T22:40:06.836Z,102111.56
2023-01-26T22:45:21.784Z,102112.81
2023-01-26T22:50:36.793Z,102124.66
2023-01-26T22:55:51.794Z,102121.69
2023-01-26T23:01:07.193Z,102116.66
2023-01-26T23:06:22.797Z,102121.91
2023-01-26T23:11:38.820Z,102132.22
2023-01-26T23:16:54.069Z,102142.28
2023-01-26T23:22:09.800Z,102132.28
2023-01-26T23:27:24.631Z,102129.06
2023-01-26T23:32:39.672Z,102132.00
2023-01-26T23:37:54.769Z,102135.22
2023-01-26T23:43:16.767Z,102124.91
2023-01-26T23:48:32.853Z,102136.47
2023-01-26T23:53:47.888Z,102121.09
2023-01-26T23:59:02.819Z,102123.53
